createdAt,value
2018-08-24T05:44:11.255Z,16.70
2018-08-24T05:46:39.724Z,17.50
2018-08-24T05:49:08.254Z,17.50
2018-08-24T05:51:36.769Z,17.50
2018-08-24T05:54:05.284Z,17.50
2018-08-24T05:56:33.801Z,17.60
2018-08-24T05:59:02.343Z,17.60
2018-08-24T06:01:30.858Z,17.60
2018-08-24T06:03:59.366Z,17.60
2018-08-24T06:06:27.886Z,17.60
2018-08-24T06:09:01.891Z,17.70
2018-08-24T06:11:30.401Z,17.80
2018-08-24T06:13:58.921Z,17.90
2018-08-24T06:16:27.429Z,18.00
2018-08-24T06:18:55.934Z,18.10
2018-08-24T06:21:24.427Z,18.20
2018-08-24T06:23:52.927Z,18.10
2018-08-24T06:26:21.542Z,18.00
2018-08-24T06:28:50.128Z,18.00
2018-08-24T06:31:18.703Z,18.00
2018-08-24T06:33:47.316Z,18.00
2018-08-24T06:36:15.805Z,18.00
2018-08-24T06:38:44.506Z,18.00
2018-08-24T06:41:12.985Z,18.00
2018-08-24T06:43:41.503Z,18.00
2018-08-24T06:46:10.309Z,18.10
2018-08-24T06:48:38.907Z,18.20
2018-08-24T06:51:07.386Z,18.20
2018-08-24T06:53:35.979Z,18.40
2018-08-24T06:56:04.370Z,18.50
2018-08-24T06:58:32.935Z,18.60
2018-08-24T07:01:01.442Z,18.70
2018-08-24T07:03:29.984Z,18.60
2018-08-24T07:05:58.477Z,18.60
2018-08-24T07:08:27.119Z,18.50
2018-08-24T07:10:55.631Z,18.40
2018-08-24T07:13:24.144Z,18.40
2018-08-24T07:15:52.692Z,18.40
2018-08-24T07:18:21.218Z,18.40
2018-08-24T07:20:49.706Z,18.40
2018-08-24T07:23:18.203Z,18.40
2018-08-24T07:25:46.710Z,18.50
2018-08-24T07:28:15.254Z,18.50
2018-08-24T07:30:43.733Z,18.60
2018-08-24T07:33:12.231Z,18.70
2018-08-24T07:35:40.750Z,18.80
2018-08-24T07:38:09.397Z,18.90
2018-08-24T07:40:37.913Z,18.90
2018-08-24T07:43:06.407Z,19.00
2018-08-24T07:45:34.905Z,19.00
2018-08-24T07:48:03.506Z,19.10
2018-08-24T07:50:32.017Z,19.20
2018-08-24T07:53:00.572Z,19.20
2018-08-24T07:55:29.070Z,19.30
2018-08-24T07:57:57.877Z,19.30
2018-08-24T08:00:26.434Z,19.20
2018-08-24T08:02:55.017Z,19.10
2018-08-24T08:05:23.573Z,19.00
2018-08-24T08:07:52.188Z,18.80
2018-08-24T08:10:20.739Z,18.70
2018-08-24T08:12:49.304Z,18.60
2018-08-24T08:15:17.812Z,18.60
2018-08-24T08:17:46.413Z,18.70
2018-08-24T08:20:14.992Z,18.80
2018-08-24T08:22:43.508Z,18.80
2018-08-24T08:25:12.007Z,18.90
2018-08-24T08:27:40.645Z,18.90
2018-08-24T08:30:09.155Z,18.90
2018-08-24T08:32:37.687Z,18.90
2018-08-24T08:35:06.282Z,18.90
2018-08-24T08:37:34.917Z,19.00
2018-08-24T08:40:04.476Z,19.00
2018-08-24T08:42:33.451Z,18.90
2018-08-24T08:45:02.393Z,18.90
2018-08-24T08:47:31.078Z,18.80
2018-08-24T08:49:59.640Z,18.80
2018-08-24T08:52:28.159Z,18.70
2018-08-24T08:54:57.083Z,18.70
2018-08-24T08:57:25.739Z,18.90
2018-08-24T08:59:54.546Z,18.90
2018-08-24T09:02:28.766Z,19.00
2018-08-24T09:04:57.372Z,19.10
2018-08-24T09:07:25.869Z,19.10
2018-08-24T09:09:54.604Z,19.10
2018-08-24T09:12:23.199Z,19.00
2018-08-24T09:14:51.791Z,19.00
2018-08-24T09:17:25.558Z,19.20
2018-08-24T09:19:59.472Z,19.40
2018-08-24T09:22:33.255Z,20.00
2018-08-24T09:25:07.154Z,20.50
2018-08-24T09:27:39.888Z,20.70
2018-08-24T09:30:08.454Z,20.60
2018-08-24T09:32:37.032Z,20.40
2018-08-24T09:35:05.573Z,20.30
2018-08-24T09:37:35.827Z,20.20
2018-08-24T09:40:05.041Z,20.10
2018-08-24T09:42:33.605Z,20.00
2018-08-24T09:45:02.555Z,20.00
2018-08-24T09:47:36.457Z,20.20
2018-08-24T09:50:10.785Z,20.50
2018-08-24T09:52:39.284Z,20.70
2018-08-24T09:55:08.012Z,20.70
2018-08-24T09:57:36.486Z,20.60
2018-08-24T10:00:05.167Z,20.60
2018-08-24T10:02:39.052Z,20.40
2018-08-24T10:05:12.826Z,20.50
2018-08-24T10:07:45.159Z,20.60
2018-08-24T10:10:13.730Z,20.80
2018-08-24T10:12:42.324Z,20.80
2018-08-24T10:15:11.680Z,20.80
2018-08-24T10:17:40.298Z,20.60
2018-08-24T10:20:08.889Z,20.50
2018-08-24T10:22:37.437Z,20.40
2018-08-24T10:25:06.102Z,20.40
2018-08-24T10:27:34.590Z,20.40
2018-08-24T10:30:03.094Z,20.40
2018-08-24T10:32:31.744Z,20.40
2018-08-24T10:35:00.331Z,20.40
2018-08-24T10:37:28.906Z,20.50
2018-08-24T10:39:57.491Z,20.50
2018-08-24T10:42:26.053Z,20.70
2018-08-24T10:44:54.633Z,20.80
2018-08-24T10:47:23.279Z,21.00
2018-08-24T10:49:51.814Z,21.10
2018-08-24T10:52:20.369Z,21.30
2018-08-24T10:54:48.956Z,21.60
2018-08-24T10:57:17.433Z,21.80
2018-08-24T10:59:45.975Z,22.10
2018-08-24T11:02:14.578Z,22.20
2018-08-24T11:04:43.139Z,22.50
2018-08-24T11:07:11.938Z,22.80
2018-08-24T11:09:40.438Z,23.00
2018-08-24T11:12:08.950Z,23.30
2018-08-24T11:14:37.498Z,23.60
2018-08-24T11:17:06.138Z,23.70
2018-08-24T11:19:34.715Z,23.70
2018-08-24T11:22:03.274Z,23.40
2018-08-24T11:24:31.796Z,23.30
2018-08-24T11:27:00.393Z,23.30
2018-08-24T11:29:29.021Z,23.10
2018-08-24T11:31:57.557Z,23.10
2018-08-24T11:34:26.067Z,22.60
2018-08-24T11:36:54.573Z,22.30
2018-08-24T11:39:23.169Z,22.00
2018-08-24T11:41:51.775Z,22.10
2018-08-24T11:44:20.243Z,22.10
2018-08-24T11:46:48.834Z,22.30
2018-08-24T11:49:17.436Z,22.50
2018-08-24T11:51:47.018Z,22.70
2018-08-24T11:54:15.704Z,22.90
2018-08-24T11:56:44.242Z,22.90
2018-08-24T11:59:12.959Z,22.80
2018-08-24T12:01:41.496Z,22.90
2018-08-24T12:04:11.296Z,22.80
2018-08-24T12:06:40.151Z,22.70
2018-08-24T12:09:10.155Z,22.80
2018-08-24T12:11:38.767Z,22.80
2018-08-24T12:14:07.285Z,22.70
2018-08-24T12:16:35.800Z,22.70
2018-08-24T12:19:04.363Z,22.80
2018-08-24T12:21:32.873Z,23.00
2018-08-24T12:24:01.406Z,23.00
2018-08-24T12:26:29.892Z,23.20
2018-08-24T12:28:58.421Z,23.10
2018-08-24T12:31:26.968Z,23.00
2018-08-24T12:33:55.488Z,23.00
2018-08-24T12:36:24.115Z,23.00
2018-08-24T12:38:52.688Z,23.00
2018-08-24T12:41:21.287Z,23.00
2018-08-24T12:43:49.770Z,22.90
2018-08-24T12:46:18.303Z,22.80
2018-08-24T12:48:46.884Z,22.80
2018-08-24T12:51:15.388Z,22.90
2018-08-24T12:53:43.922Z,23.00
2018-08-24T12:56:17.803Z,23.00
2018-08-24T12:58:46.431Z,23.00
2018-08-24T13:01:14.949Z,23.10
2018-08-24T13:03:43.905Z,23.10
2018-08-24T13:06:12.439Z,23.30
2018-08-24T13:08:41.919Z,23.40
2018-08-24T13:11:10.570Z,23.50
2018-08-24T13:13:39.093Z,23.50
2018-08-24T13:16:07.647Z,23.60
2018-08-24T13:18:36.316Z,23.90
2018-08-24T13:21:05.123Z,24.60
2018-08-24T13:23:33.677Z,24.90
2018-08-24T13:26:02.196Z,25.20
2018-08-24T13:28:30.789Z,25.60
2018-08-24T13:30:59.274Z,25.60
2018-08-24T13:33:27.757Z,25.40
2018-08-24T13:35:56.242Z,25.50
2018-08-24T13:38:24.790Z,25.60
2018-08-24T13:40:53.313Z,25.70
2018-08-24T13:43:21.817Z,26.30
2018-08-24T13:45:50.314Z,28.10
2018-08-24T13:48:18.958Z,30.20
2018-08-24T13:50:47.432Z,32.80
2018-08-24T13:53:15.922Z,34.00
2018-08-24T13:55:44.427Z,35.10
2018-08-24T13:58:13.001Z,36.00
2018-08-24T14:00:41.494Z,37.10
2018-08-24T14:03:09.997Z,36.40
2018-08-24T14:05:38.532Z,36.20
2018-08-24T14:08:07.119Z,35.60
2018-08-24T14:10:35.602Z,35.40
2018-08-24T14:13:04.137Z,34.50
2018-08-24T14:15:32.577Z,34.10
2018-08-24T14:18:01.149Z,33.00
2018-08-24T14:20:29.715Z,33.50
2018-08-24T14:22:58.207Z,33.20
2018-08-24T14:25:26.744Z,32.60
2018-08-24T14:27:55.217Z,32.30
2018-08-24T14:30:23.720Z,31.80
2018-08-24T14:32:52.833Z,31.40
2018-08-24T14:35:21.444Z,30.80
2018-08-24T14:37:50.224Z,30.70
2018-08-24T14:40:20.859Z,30.30
2018-08-24T14:42:49.509Z,29.50
2018-08-24T14:45:22.702Z,28.20
2018-08-24T14:47:51.363Z,27.40
2018-08-24T14:50:19.862Z,26.90
2018-08-24T14:52:48.355Z,26.60
2018-08-24T14:55:16.925Z,26.80
2018-08-24T14:57:45.498Z,26.80
2018-08-24T15:00:13.986Z,26.40
2018-08-24T15:02:42.520Z,25.90
2018-08-24T15:05:12.049Z,25.60
2018-08-24T15:07:40.711Z,24.90
2018-08-24T15:10:10.092Z,24.40
2018-08-24T15:12:39.302Z,23.70
2018-08-24T15:15:08.214Z,23.20
2018-08-24T15:17:36.741Z,22.90
2018-08-24T15:20:06.119Z,22.70
2018-08-24T15:22:34.861Z,22.60
2018-08-24T15:25:03.481Z,22.50
2018-08-24T15:27:31.977Z,22.40
2018-08-24T15:30:00.575Z,22.40
2018-08-24T15:32:29.085Z,22.50
2018-08-24T15:34:57.594Z,22.40
2018-08-24T15:37:26.088Z,22.50
2018-08-24T15:39:54.624Z,22.40
2018-08-24T15:42:23.154Z,22.30
2018-08-24T15:44:51.643Z,22.10
2018-08-24T15:47:21.154Z,22.00
2018-08-24T15:49:49.681Z,21.70
2018-08-24T15:52:18.265Z,21.40
2018-08-24T15:54:46.935Z,21.00
2018-08-24T15:57:15.362Z,20.80
2018-08-24T15:59:43.854Z,20.70
2018-08-24T16:02:12.381Z,20.50
2018-08-24T16:04:40.903Z,20.50
2018-08-24T16:07:09.527Z,20.40
2018-08-24T16:09:38.101Z,20.30
2018-08-24T16:12:06.750Z,20.20
2018-08-24T16:14:35.252Z,20.20
2018-08-24T16:17:03.942Z,20.10
2018-08-24T16:19:32.607Z,20.10
2018-08-24T16:22:01.138Z,20.00
2018-08-24T16:24:29.638Z,19.90
2018-08-24T16:26:58.111Z,19.90
2018-08-24T16:29:26.734Z,19.80
2018-08-24T16:31:55.236Z,19.90
2018-08-24T16:34:23.769Z,19.80
2018-08-24T16:36:52.283Z,19.80
2018-08-24T16:39:20.855Z,19.80
2018-08-24T16:41:49.352Z,19.80
2018-08-24T16:44:17.840Z,19.70
2018-08-24T16:46:46.443Z,19.60
2018-08-24T16:49:15.010Z,19.60
2018-08-24T16:51:43.534Z,19.60
2018-08-24T16:54:12.076Z,19.60
2018-08-24T16:56:40.524Z,19.50
2018-08-24T16:59:09.071Z,19.30
2018-08-24T17:01:37.681Z,19.30
2018-08-24T17:04:06.265Z,19.20
2018-08-24T17:06:34.768Z,19.20
2018-08-24T17:09:04.663Z,19.20
2018-08-24T17:11:33.206Z,19.10
2018-08-24T17:14:01.732Z,19.10
2018-08-24T17:16:30.239Z,19.10
2018-08-24T17:18:58.819Z,19.10
2018-08-24T17:21:27.452Z,19.10
2018-08-24T17:23:55.943Z,19.00
2018-08-24T17:26:24.469Z,19.00
2018-08-24T17:28:53.108Z,19.00
2018-08-24T17:31:21.716Z,18.90
2018-08-24T17:33:50.351Z,18.80
2018-08-24T17:36:18.902Z,18.70
2018-08-24T17:38:47.575Z,18.60
2018-08-24T17:41:16.091Z,18.60
2018-08-24T17:43:45.072Z,18.50
2018-08-24T17:46:13.612Z,18.40
2018-08-24T17:48:42.307Z,18.40
2018-08-24T17:51:10.879Z,18.30
2018-08-24T17:53:39.453Z,18.30
2018-08-24T17:56:07.969Z,18.20
2018-08-24T17:58:36.562Z,18.20
2018-08-24T18:01:05.230Z,18.20
2018-08-24T18:03:33.777Z,18.10
2018-08-24T18:06:02.346Z,18.10
2018-08-24T18:08:30.954Z,18.00
2018-08-24T18:10:59.459Z,18.00
2018-08-24T18:13:27.971Z,17.90
2018-08-24T18:15:56.511Z,17.90
2018-08-24T18:18:25.070Z,17.80
2018-08-24T18:20:53.673Z,17.80
2018-08-24T18:23:22.760Z,17.70
2018-08-24T18:25:51.255Z,17.70
2018-08-24T18:28:19.813Z,17.70
2018-08-24T18:30:48.343Z,17.60
2018-08-24T18:33:16.863Z,17.50
2018-08-24T18:35:45.433Z,17.50
2018-08-24T18:38:13.951Z,17.50
2018-08-24T18:40:42.590Z,17.40
2018-08-24T18:43:11.113Z,17.30
2018-08-24T18:45:39.656Z,17.30
2018-08-24T18:48:08.155Z,17.30
2018-08-24T18:50:37.553Z,17.20
2018-08-24T18:53:06.047Z,17.10
2018-08-24T18:55:34.556Z,17.10
2018-08-24T18:58:03.275Z,17.10
2018-08-24T19:00:31.804Z,17.00
2018-08-24T19:03:01.526Z,17.00
2018-08-24T19:05:30.100Z,17.00
2018-08-24T19:08:04.094Z,16.90
2018-08-24T19:10:36.880Z,16.90
2018-08-24T19:13:05.589Z,16.80
2018-08-24T19:15:34.142Z,16.70
2018-08-24T19:19:05.895Z,16.70
2018-08-24T19:21:39.785Z,16.70
2018-08-24T19:24:08.455Z,16.60
2018-08-24T19:26:37.016Z,16.60
2018-08-24T19:29:10.830Z,16.60
2018-08-24T19:31:39.573Z,16.60
2018-08-24T19:34:08.406Z,16.60
2018-08-24T19:36:36.945Z,16.50
2018-08-24T19:39:08.829Z,16.50
2018-08-24T19:41:42.631Z,16.50
2018-08-24T19:44:11.501Z,16.50
2018-08-24T19:46:40.017Z,16.50
2018-08-24T19:49:14.127Z,16.60
2018-08-24T19:51:42.860Z,16.60
2018-08-24T19:54:11.744Z,16.60
2018-08-24T19:56:40.279Z,16.60
2018-08-24T19:59:10.343Z,16.60
2018-08-24T20:01:39.556Z,16.50
2018-08-24T20:04:08.835Z,16.50
2018-08-24T20:06:42.784Z,16.50
2018-08-24T20:09:17.555Z,16.50
2018-08-24T20:11:48.012Z,16.50
2018-08-24T20:14:20.699Z,16.40
2018-08-24T20:16:54.877Z,16.40
2018-08-24T20:19:23.591Z,16.40
2018-08-24T20:21:52.140Z,16.40
2018-08-24T20:24:21.155Z,16.30
2018-08-24T20:26:50.054Z,16.30
2018-08-24T20:29:19.486Z,16.20
2018-08-24T20:31:48.074Z,16.20
2018-08-24T20:34:17.039Z,16.20
2018-08-24T20:36:45.797Z,16.10
2018-08-24T20:39:14.563Z,16.10
2018-08-24T20:41:43.090Z,16.10
2018-08-24T20:44:11.630Z,16.10
2018-08-24T20:46:40.337Z,16.10
2018-08-24T20:49:08.918Z,16.10
2018-08-24T20:51:37.415Z,16.10
2018-08-24T20:54:05.928Z,16.10
2018-08-24T20:56:34.391Z,16.10
2018-08-24T20:59:03.070Z,16.10
2018-08-24T21:01:31.579Z,16.10
2018-08-24T21:04:00.099Z,16.10
2018-08-24T21:06:28.642Z,16.10
2018-08-24T21:08:57.208Z,16.10
2018-08-24T21:11:25.721Z,16.10
2018-08-24T21:13:54.248Z,16.00
2018-08-24T21:16:22.781Z,16.00
2018-08-24T21:18:51.347Z,16.00
2018-08-24T21:21:19.908Z,16.00
2018-08-24T21:23:48.431Z,16.10
2018-08-24T21:26:16.956Z,16.10
2018-08-24T21:28:45.575Z,16.10
